Latest Weather Observations for Williamtown

IDN60901

Issued at 10:01 pm EST Tuesday 1 September 2015 (issued every 10 minutes, with the page automatically refreshed every 10 minutes)

About weather observations | Map of Sydney area stations | Latest observations for Sydney area | Other Formats
Station Details ID: 061078 Name: WILLIAMTOWN RAAF Lat: -32.79 Lon: 151.84 Height: 9.0 m
Data from the previous 72 hours. | See also: Recent months at Williamtown
Date/Time
EST
Tmp

°C
App
Tmp
°C
Dew
Point
°C
Rel
Hum
%
Delta-T

°C
Wind Press
QNH
hPa
Press
MSL
hPa
Rain
since
9 am
mm
Dir
 
Spd
km/h
Gust
km/h
Spd
kts
Gust
kts
01/09:30pm 7.3 6.3 5.7 89 0.7 CALM 0 0 0 0 1015.9 1015.8 0.0
01/09:00pm 7.4 6.4 5.6 88 0.8 CALM 0 0 0 0 1015.6 1015.5 0.0
01/08:30pm 7.7 6.7 5.7 87 0.9 CALM 0 0 0 0 1015.4 1015.3 0.0
01/08:00pm 7.8 6.4 5.6 86 1.0 N 2 7 1 4 1015.2 1015.1 0.0
01/07:30pm 9.0 7.1 6.6 85 1.1 NE 6 9 3 5 1014.9 1014.8 0.0
01/07:00pm 9.6 8.7 6.1 79 1.6 CALM 0 0 0 0 1014.7 1014.6 0.0
01/06:30pm 12.0 11.2 6.3 68 2.7 CALM 0 0 0 0 1014.4 1014.3 0.0
01/06:00pm 13.3 11.8 6.6 64 3.2 ESE 4 7 2 4 1014.2 1014.1 0.0
01/05:30pm 14.8 11.8 6.0 55 4.2 SE 11 11 6 6 1014.0 1013.9 0.0
01/05:00pm 16.0 12.2 5.6 50 5.0 SE 15 17 8 9 1013.8 1013.7 0.0
01/04:30pm 16.9 12.9 4.9 45 5.7 SE 15 19 8 10 1013.6 1013.5 0.0
01/04:00pm 19.2 13.7 0.8 29 8.2 WNW 19 28 10 15 1013.5 1013.4 0.0
01/03:30pm 19.6 13.3 -0.7 25 8.8 WNW 22 28 12 15 1013.6 1013.5 0.0
01/03:00pm 19.4 13.8 -0.3 26 8.6 W 19 30 10 16 1013.4 1013.3 0.0
01/02:30pm 19.4 13.7 -1.1 25 8.8 W 19 30 10 16 1013.5 1013.4 0.0
01/02:00pm 19.3 12.6 -0.9 25 8.7 WNW 24 33 13 18 1013.6 1013.5 0.0
01/01:30pm 19.3 13.5 -0.1 27 8.5 W 20 33 11 18 1013.7 1013.6 0.0
01/01:00pm 18.3 12.0 -0.9 27 8.2 W 22 32 12 17 1013.9 1013.8 0.0
01/12:30pm 18.3 12.8 2.0 33 7.4 WNW 20 32 11 17 1014.5 1014.4 0.0
01/12:00pm 17.3 11.1 1.9 35 6.9 WNW 24 35 13 19 1015.0 1014.9 0.0
01/11:30am 17.4 11.2 2.4 36 6.8 WNW 24 32 13 17 1015.4 1015.3 0.0
01/11:00am 16.4 9.8 2.1 38 6.4 W 26 33 14 18 1015.9 1015.8 0.0
01/10:30am 15.7 9.3 3.1 43 5.7 WNW 26 37 14 20 1016.4 1016.3 0.0
01/10:00am 15.1 7.6 3.7 46 5.2 WNW 32 39 17 21 1016.5 1016.4 0.0
01/09:30am 13.7 6.7 4.3 53 4.3 WNW 30 39 16 21 1016.5 1016.5 0.0
01/09:00am 13.2 6.4 5.0 57 3.8 WNW 30 41 16 22 1016.5 1016.5 0.4
01/08:30am 11.9 4.7 4.9 62 3.2 WNW 32 39 17 21 1016.6 1016.6 0.4
01/08:00am 10.9 4.5 5.2 68 2.6 WNW 28 37 15 20 1016.5 1016.5 0.4
01/07:30am 9.9 3.9 5.3 73 2.1 WNW 26 33 14 18 1016.1 1016.1 0.4
01/07:00am 8.7 3.8 5.1 78 1.6 WNW 20 26 11 14 1015.9 1015.9 0.4
01/06:30am 8.1 2.0 4.7 79 1.5 WNW 26 32 14 17 1015.7 1015.7 0.4
01/06:00am 8.0 3.0 4.8 80 1.4 WNW 20 28 11 15 1015.2 1015.2 0.4
01/05:30am 7.8 2.9 5.1 83 1.2 WNW 20 26 11 14 1015.1 1015.1 0.4
01/05:00am 7.7 3.1 5.5 86 1.0 WNW 19 26 10 14 1014.9 1014.9 0.4
01/04:30am 7.9 3.6 5.4 84 1.1 WNW 17 20 9 11 1014.9 1014.9 0.2
01/04:00am 8.3 3.5 5.6 83 1.2 WNW 20 26 11 14 1014.7 1014.7 0.2
01/03:30am 8.7 4.1 6.3 85 1.1 NW 20 26 11 14 1014.6 1014.6 0.2
01/03:00am 8.9 4.3 6.5 85 1.1 WNW 20 26 11 14 1014.7 1014.7 0.2
01/02:30am 9.0 4.5 7.1 88 0.9 WNW 20 28 11 15 1014.7 1014.7 0.2
01/02:00am 9.1 5.4 7.8 92 0.6 WNW 17 22 9 12 1015.0 1015.0 0.2
01/01:30am 9.5 5.8 7.8 89 0.8 WNW 17 20 9 11 1015.1 1015.1 0.2
01/01:00am 9.1 5.8 8.1 93 0.5 NW 15 17 8 9 1015.3 1015.3 0.2
01/12:30am 9.3 6.4 8.3 93 0.5 NW 13 15 7 8 1015.4 1015.4 0.2
01/12:00am 9.8 7.1 8.8 93 0.5 NW 13 13 7 7 1015.5 1015.5 0.2
 
Date/Time
EST
Tmp

°C
App
Tmp
°C
Dew
Point
°C
Rel
Hum
%
Delta-T

°C
Wind Press
QNH
hPa
Press
MSL
hPa
Rain
since
9 am
mm
Dir
 
Spd
km/h
Gust
km/h
Spd
kts
Gust
kts
31/11:30pm 10.7 8.1 9.3 91 0.7 NW 13 15 7 8 1015.5 1015.5 0.2
31/11:00pm 11.4 9.0 10.0 91 0.7 NNW 13 15 7 8 1015.6 1015.6 0.2
31/10:30pm 11.3 8.9 9.9 91 0.7 NW 13 19 7 10 1015.8 1015.8 0.2
31/10:00pm 10.9 10.9 9.7 92 0.6 CALM 0 6 0 3 1015.6 1015.6 0.2
31/09:30pm 11.2 8.7 9.6 90 0.8 NW 13 15 7 8 1015.8 1015.8 0.2
31/09:00pm 11.7 10.3 9.7 87 1.0 NW 7 13 4 7 1015.8 1015.8 0.2
31/08:30pm 11.8 9.1 8.8 82 1.5 NW 13 15 7 8 1015.6 1015.6 0.0
31/08:00pm 10.5 8.7 7.8 83 1.3 NW 7 11 4 6 1015.4 1015.4 0.0
31/07:30pm 9.9 9.4 7.8 87 1.0 CALM 0 0 0 0 1015.1 1015.1 0.0
31/07:00pm 10.4 8.5 7.5 82 1.4 WSW 7 7 4 4 1014.8 1014.8 0.0
31/06:30pm 10.9 10.4 7.8 81 1.5 CALM 0 0 0 0 1014.6 1014.6 0.0
31/06:00pm 11.5 9.3 8.0 79 1.7 S 9 9 5 5 1014.4 1014.4 0.0
31/05:30pm 13.6 11.2 7.2 65 3.1 SSE 9 11 5 6 1014.3 1014.3 0.0
31/05:00pm 15.2 12.1 7.1 58 4.0 SSE 13 15 7 8 1014.3 1014.3 0.0
31/04:30pm 15.9 12.3 6.7 54 4.5 SSE 15 17 8 9 1014.0 1014.0 0.0
31/04:00pm 16.0 12.3 6.1 52 4.8 SSE 15 20 8 11 1013.9 1013.9 0.0
31/03:30pm 16.3 12.8 5.4 48 5.2 SSE 13 20 7 11 1014.0 1014.0 0.0
31/03:00pm 16.4 12.2 5.8 49 5.1 SSE 17 19 9 10 1014.2 1014.2 0.0
31/02:30pm 16.8 13.4 6.1 49 5.2 SSE 13 19 7 10 1014.3 1014.3 0.0
31/02:00pm 15.7 11.9 5.7 51 4.8 SSE 15 20 8 11 1014.7 1014.7 0.0
31/01:30pm 15.7 11.3 4.9 48 5.1 SSE 17 20 9 11 1014.8 1014.8 0.0
31/01:00pm 16.0 11.6 4.7 47 5.3 SSE 17 22 9 12 1015.0 1015.0 0.0
31/12:30pm 18.3 14.2 4.4 39 6.6 W 15 22 8 12 1015.3 1015.3 0.0
31/12:00pm 16.9 12.2 2.9 39 6.4 SW 17 28 9 15 1015.8 1015.8 0.0
31/11:30am 17.9 12.8 3.2 37 6.8 S 19 30 10 16 1016.2 1016.2 0.0
31/11:00am 16.8 12.2 3.6 41 6.1 SW 17 28 9 15 1016.6 1016.6 0.0
31/10:30am 16.7 12.2 4.3 43 5.8 SW 17 28 9 15 1016.8 1016.8 0.0
31/10:00am 16.0 11.2 4.7 47 5.3 WSW 19 26 10 14 1017.2 1017.2 0.0
31/09:30am 16.0 11.2 5.5 49 5.0 WSW 20 30 11 16 1017.4 1017.4 0.0
31/09:00am 14.9 10.6 5.4 53 4.5 WSW 17 26 9 14 1017.5 1017.5 0.0
31/08:30am 13.7 9.6 6.1 60 3.6 WSW 17 26 9 14 1017.3 1017.3 0.0
31/08:00am 11.8 8.3 7.0 72 2.3 W 15 19 8 10 1017.4 1017.4 0.0
31/07:30am 10.3 7.1 6.9 79 1.6 WNW 13 17 7 9 1017.2 1017.2 0.0
31/07:00am 8.7 5.4 6.3 85 1.1 WNW 13 15 7 8 1017.1 1017.1 0.0
31/06:30am 7.2 3.4 5.9 91 0.6 WNW 15 17 8 9 1016.8 1016.8 0.0
31/06:00am 7.3 3.5 6.0 91 0.6 WNW 15 17 8 9 1016.5 1016.5 0.0
31/05:30am 7.5 3.4 6.2 91 0.6 WNW 17 19 9 10 1016.5 1016.5 0.0
31/05:00am 7.4 3.7 6.1 91 0.6 WNW 15 17 8 9 1016.4 1016.4 0.0
31/04:30am 7.4 3.7 6.1 91 0.6 WNW 15 17 8 9 1016.5 1016.5 0.0
31/04:00am 7.5 3.4 6.2 91 0.6 WNW 17 19 9 10 1016.5 1016.5 0.0
31/03:30am 7.6 3.9 6.1 90 0.7 WNW 15 17 8 9 1016.5 1016.5 0.0
31/03:00am 8.0 3.9 6.2 88 0.8 WNW 17 19 9 10 1016.8 1016.8 0.0
31/02:30am 8.2 4.5 6.5 89 0.8 WNW 15 19 8 10 1017.1 1017.1 0.0
31/02:00am 8.4 4.8 6.7 89 0.8 WNW 15 17 8 9 1017.6 1017.6 0.0
31/01:30am 8.6 4.7 7.1 90 0.7 WNW 17 19 9 10 1017.8 1017.8 0.0
31/01:00am 8.2 4.6 6.9 91 0.6 NW 15 15 8 8 1017.9 1017.9 0.0
31/12:30am 8.4 4.8 6.9 90 0.7 NW 15 17 8 9 1018.2 1018.2 0.0
31/12:00am 8.6 5.8 6.9 89 0.8 NW 11 13 6 7 1018.0 1018.0 0.0
 
Date/Time
EST
Tmp

°C
App
Tmp
°C
Dew
Point
°C
Rel
Hum
%
Delta-T

°C
Wind Press
QNH
hPa
Press
MSL
hPa
Rain
since
9 am
mm
Dir
 
Spd
km/h
Gust
km/h
Spd
kts
Gust
kts
30/11:30pm 8.8 6.0 6.9 88 0.9 W 11 13 6 7 1018.1 1018.1 0.0
30/11:00pm 8.7 5.2 7.0 89 0.8 NW 15 17 8 9 1017.9 1017.9 0.0
30/10:30pm 9.0 6.3 7.3 89 0.8 NW 11 13 6 7 1018.2 1018.2 0.0
30/10:00pm 10.1 7.0 7.1 81 1.4 W 13 13 7 7 1018.4 1018.4 0.0
30/09:30pm 10.8 7.3 7.2 78 1.7 WSW 15 17 8 9 1018.4 1018.4 0.0
30/09:00pm 10.0 7.2 7.0 81 1.4 WSW 11 13 6 7 1018.5 1018.5 0.0
30/08:30pm 10.8 8.1 7.2 78 1.7 WSW 11 13 6 7 1018.4 1018.4 0.0
30/08:00pm 10.9 8.2 7.3 78 1.7 WSW 11 13 6 7 1018.3 1018.3 0.0
30/07:30pm 11.1 8.8 7.3 77 1.8 SW 9 11 5 6 1018.2 1018.2 0.0
30/07:00pm 12.6 10.2 7.2 69 2.6 SW 9 13 5 7 1018.1 1018.1 0.0
30/06:30pm 12.5 9.4 7.3 70 2.5 SSW 13 15 7 8 1017.9 1017.9 0.0
30/06:00pm 13.5 10.4 7.3 66 3.0 SSW 13 17 7 9 1017.7 1017.7 0.0
30/05:30pm 14.3 10.7 6.9 61 3.6 S 15 19 8 10 1017.5 1017.5 0.0
30/05:00pm 15.5 10.6 6.7 55 4.3 S 22 30 12 16 1017.3 1017.3 0.0
30/04:30pm 16.3 11.1 5.4 48 5.2 S 22 32 12 17 1017.1 1017.1 0.0
30/04:00pm 16.6 10.4 4.2 43 5.8 S 26 35 14 19 1017.0 1017.0 0.0
30/03:30pm 16.6 10.5 5.0 46 5.5 S 26 33 14 18 1017.0 1017.0 0.0
30/03:00pm 16.9 10.8 2.8 39 6.4 S 24 30 13 16 1017.1 1017.1 0.0
30/02:30pm 17.1 11.2 4.1 42 6.1 S 24 32 13 17 1017.2 1017.2 0.0
30/02:00pm 17.3 11.6 4.9 44 5.9 SSE 24 37 13 20 1017.4 1017.4 0.0
30/01:30pm 17.1 11.3 4.3 42 6.0 S 24 30 13 16 1017.6 1017.6 0.0
30/01:00pm 17.5 12.4 5.8 46 5.7 S 22 32 12 17 1017.9 1017.9 0.0
30/12:30pm 17.1 12.4 5.2 45 5.7 S 19 28 10 15 1018.3 1018.3 0.0
30/12:00pm 16.0 12.0 5.0 48 5.2 S 15 19 8 10 1018.8 1018.8 0.0
30/11:30am 16.8 14.3 4.7 44 5.7 SSW 7 15 4 8 1019.2 1019.2 0.0
30/11:00am 16.0 12.3 4.7 47 5.3 W 13 19 7 10 1019.7 1019.7 0.0
30/10:30am 15.5 11.0 4.0 46 5.3 WNW 17 26 9 14 1020.0 1020.0 0.0
30/10:00am 14.7 9.7 3.4 46 5.1 WNW 19 26 10 14 1020.2 1020.2 0.0
30/09:30am 13.6 7.4 2.4 46 4.9 WNW 24 30 13 16 1020.2 1020.2 0.0
30/09:00am 12.9 6.5 3.2 51 4.3 WNW 26 30 14 16 1020.3 1020.3 0.0
30/08:30am 11.8 5.8 3.1 55 3.8 WNW 24 33 13 18 1020.4 1020.4 0.0
30/08:00am 10.6 4.6 3.2 60 3.2 WNW 24 32 13 17 1020.3 1020.3 0.0
30/07:30am 9.4 4.1 3.1 65 2.7 WNW 20 26 11 14 1020.3 1020.3 0.0
30/07:00am 8.1 2.9 3.7 74 1.9 WNW 20 28 11 15 1019.9 1019.9 0.0
30/06:30am 7.0 2.1 4.0 81 1.3 WNW 19 22 10 12 1019.8 1019.8 0.0
30/06:00am 7.3 1.8 3.8 78 1.5 WNW 22 28 12 15 1019.7 1019.7 0.0
30/05:30am 7.7 2.7 3.7 76 1.7 WNW 19 28 10 15 1019.4 1019.4 0.0
30/05:00am 7.8 2.9 4.1 77 1.6 WNW 19 22 10 12 1019.3 1019.3 0.0
30/04:30am 7.3 3.5 4.0 79 1.4 WNW 13 17 7 9 1019.2 1019.2 0.0
30/04:00am 7.4 3.2 3.6 77 1.6 WNW 15 17 8 9 1019.3 1019.3 0.0
30/03:30am 7.2 2.9 3.4 77 1.6 WNW 15 19 8 10 1019.2 1019.2 0.0
30/03:00am 7.7 3.8 3.5 75 1.8 NW 13 15 7 8 1019.3 1019.3 0.0
30/02:30am 8.4 4.2 3.8 73 2.0 WNW 15 19 8 10 1019.5 1019.5 0.0
30/02:00am 9.0 4.8 3.9 70 2.2 WNW 15 19 8 10 1019.7 1019.7 0.0
30/01:30am 9.6 5.1 4.4 70 2.3 WNW 17 19 9 10 1020.0 1020.0 0.0
30/01:00am 10.2 6.2 5.1 70 2.3 NW 15 17 8 9 1020.3 1020.3 0.0
30/12:30am 10.2 6.6 4.9 69 2.4 NW 13 15 7 8 1020.5 1020.5 0.0
30/12:00am 9.5 5.6 5.3 75 1.9 WNW 15 17 8 9 1020.4 1020.4 0.0
 
Date/Time
EST
Tmp

°C
App
Tmp
°C
Dew
Point
°C
Rel
Hum
%
Delta-T

°C
Wind Press
QNH
hPa
Press
MSL
hPa
Rain
since
9 am
mm
Dir
 
Spd
km/h
Gust
km/h
Spd
kts
Gust
kts
29/11:30pm 9.6 5.7 5.4 75 1.9 WNW 15 17 8 9 1020.3 1020.3 0.0
29/11:00pm 10.5 6.6 5.2 70 2.4 WNW 15 17 8 9 1020.3 1020.3 0.0
29/10:30pm 12.0 7.2 4.7 61 3.3 W 19 30 10 16 1020.0 1020.0 0.0

Latest Capital City Observations: Canberra | Sydney | Melbourne | Brisbane | Adelaide | Perth | Hobart | Darwin

Other Formats:

Comma delimited format used in spreadsheet applications
http://www.bom.gov.au/fwo/IDN60901/IDN60901.94776.axf

JavaScript Object Notation format (JSON) in row-major order
http://www.bom.gov.au/fwo/IDN60901/IDN60901.94776.json